Terminal Aerodrome Forecast
Issued by NWS

Home | Current Version | Previous Version | Text Only | Print | Product List | Glossary On
Versions: 1 2 3 4 5 6 7 8 9 10 11 12 13
000
FTUS44 KEPZ 060541
TAFTCS
TAF
KTCS 060541Z 0606/0706 33005KT P6SM FEW070 BKN150
     FM061800 28013KT P6SM VCTS SCT060CB BKN120
     FM070400 33006KT P6SM SCT120 BKN250=

USA.gov is the U.S. government's official web portal to all federal, state and local government web resources and services.